New Data at the IRIS DMC

SEED Data arriving in 2023

arrival network startyr endyr name category restricted
2023-01-03 16:00:00-08 6Q 2021 2023 Fuego Lahar Monitoring PASSCAL Y
2023-01-05 16:00:00-08 4Q 2022 2022 WHOLESCALE survey at San Emidio, Nevada, USA PASSCAL Y
2023-01-25 16:00:00-08 XQ 1999 2000 RUSH-I Reflectors Under Scottish Highlands, phase I OTHER N
2023-01-31 16:00:00-08 4A 2020 2020 Imaging Yellowstone's shallow Magma Reservoir PASSCAL N
2023-02-08 16:00:00-08 6C 2006 2008 Syros (Cyclades) OTHER N
2023-02-16 16:00:00-08 8F 2020 2025 Reykjanes Seismic Network IRIS Y
2023-02-19 16:00:00-08 7G 2021 2024 Collaborative Research: Constraining transient magma intrusion processes in the Nyiragongo-Kivu continental rift zone PASSCAL P
2023-02-21 16:00:00-08 2Q 2019 2019 Kilauea 2019 IRIS N
2023-03-12 17:00:00-07 ZV 2022 2022 Stromboli volcano Temporary Deployment, May 2022 IRIS N
2023-03-14 17:00:00-07 7T 2019 2020 LHS IRIS N
2023-03-16 17:00:00-07 8Q 2021 2023 Mapping and Understanding Seismic Anisotropy in the Northeast Pacific Ocean OBSIC Y
2023-03-23 17:00:00-07 4P 2006 2018 NSF EarthScope USArray Magnetotelluric Transportable and Backbone Arrays IRIS N
2023-04-04 17:00:00-07 YG 2020 2023 Passive Seismic Observations of a glacier surge: Turner Glacier, Alaska, USA PASSCAL P
2023-04-12 17:00:00-07 7T 2022 2022 Quantification and identification of erosion processes leading to the retreat of headwall in high alpine environment PASSCAL N
2023-04-16 17:00:00-07 1K 2020 2021 TEMPEST seismic network IRIS Y
2023-05-02 17:00:00-07 8L 2022 2022 SAGE 2022 investigations of the Valles Caldera PASSCAL Y
2023-05-22 17:00:00-07 TF 2022 2599 Tajikistan National Seismic Network N
2023-05-29 17:00:00-07 4U 2022 2023 São Jorge OBS Network IRIS Y
2023-05-29 17:00:00-07 7F 2016 2017 Past and future deformation of the Ross Ice Shelf PASSCAL N
2023-06-13 17:00:00-07 2M 2022 2026 Newberry Volcano EGS monitoring OTHER N
2023-06-14 17:00:00-07 S8 2023 SensorEra Seismic Network N
2023-06-14 17:00:00-07 1G 2010 2011 Seismic Imaging of the Ordos Plateau PASSCAL N
2023-06-21 17:00:00-07 XX 2013 2599 Test and non-distributed data only IRIS Y
2023-06-22 17:00:00-07 9P 2015 2018 Horizontal Pressure Gradient Test Deployments OTHER N
2023-06-29 17:00:00-07 4A 2022 2024 Mapping the structure of the Duluth Complex & Animikie Basin PASSCAL Y
2023-06-29 17:00:00-07 ZX 2021 2023 Southern Alps Long Skinny Array; Along-fault array for virtual earthquake analysis of the Alpine Fault PASSCAL P
2023-07-12 17:00:00-07 3U 2021 2022 Domo de San Pedro BB IRIS Y
2023-07-17 17:00:00-07 MZ 2022 National Seismic Network of Mozambique P
2023-07-19 17:00:00-07 3A 2023 2023 Observing 3D propagation at the Atlantis II Seamount Complex OBSIC Y
2023-07-19 17:00:00-07 8A 2023 2023 Seismic observations and characterization of vehicular activity PASSCAL P
2023-07-25 17:00:00-07 9R 2022 2023 Investigating the Detachment Fault Cycle at the Mid-Cayman Spreading Center OBSIC Y
2023-07-31 17:00:00-07 1L 2022 2042 Rio Tinto PASSCAL Y
2023-08-01 17:00:00-07 2U 2018 2026 Sedgwick Reserve OTHER N
2023-08-13 17:00:00-07 3E 2022 2024 Islands of the Four Mountains 2022-23 IRIS Y
2023-08-14 17:00:00-07 2V 2023 2024 Harnessing the Geothermal Potential of Oklahoma Sedimentary Basin PASSCAL P
2023-08-24 17:00:00-07 9L 2020 2020 Hall Ranch Nodal Seismic Array OTHER Y
2023-08-29 17:00:00-07 1M 2021 2022 Walker Ranch Nodal Seismic Array OTHER Y
2023-08-31 17:00:00-07 6C 2023 2023 Exploratory monitoring of meteotsunami events on the Laurentian Great Lakes PASSCAL N
2023-09-04 17:00:00-07 6H 2022 2022 Imaging subglacial hydrology beneath the Greenland Ice Sheet PASSCAL P
2023-09-11 17:00:00-07 3C 2022 2025 Modeling, Uplift, Seismology, and Igneous-geochemistry in the Colombian Andes PASSCAL Y
2023-10-01 17:00:00-07 7D 2022 2025 Puysegur Tremor And Nucleation Geophysical Observatory PASSCAL P
2023-10-11 17:00:00-07 6L 2019 2020 BEAMISH 2019-20, Rutford Ice Stream, West Antarctica` SEIS-UK N
2023-10-15 17:00:00-07 8S 2022 2022 Azores Network SEIS-UK Y
2023-10-30 17:00:00-07 9P 2022 2024 GEology of New England via Seismic Imaging Studies PASSCAL P
2023-11-01 17:00:00-07 XR 2023 2023 Exploring the potential of geophones for quantifying bedload tranpsort and river ice break up in the Canning River, Alaska PASSCAL N
2023-11-02 17:00:00-07 8U 2023 2023 Seismic reconnaisance of Milne Ice Shelf, Nunavut, Canada, as a platform for study of sea-ice using microsesism. PASSCAL N
2023-11-08 16:00:00-08 LH 2023 2599 Large High-Performance Outdoor Shake Table Y
2023-11-14 16:00:00-08 ZD 2021 2022 SIIOS Flagstaff 2021 Mini Campaign PASSCAL N
2023-11-20 16:00:00-08 1V 2003 2015 Temporary Accelerometric Network in Basilicata region for Site Effect studies OTHER N
2023-11-27 16:00:00-08 5L 2023 2023 University of Chicago Educational, Faculty Development and Outreach Seismic Experiment PASSCAL N
2023-11-30 16:00:00-08 9G 2008 2010 Western Canada Regional Long Period MT Surveys OTHER N
2023-12-03 16:00:00-08 4B 2022 2022 Seismometer to Investigate Ice and Ocean Structure (SIIOS) Field Experiment: Hiawatha Crater, Greenland PASSCAL N
2023-12-04 16:00:00-08 6K 2023 2027 Cape Modern seismic monitoring network OTHER N
2023-12-04 16:00:00-08 1Q 2022 2025 Patua seismic array PASSCAL N
2023-12-11 16:00:00-08 X7 2019 2019 FORGE Phase2C Stimulation OTHER N
2023-12-12 16:00:00-08 ZZ 2023 2023 SAGE 2023 investigations of the Valles Caldera PASSCAL P
2023-12-25 16:00:00-08 8K 2023 2023 Advancing Forest Health Assessment through Multi-Method Geophysical Surveys: Case Study in Snodgrass, Colorado. PASSCAL N
2023-12-27 16:00:00-08 5F 2023 2023 Yasur volcano seismoacoustic campaign (August 2023) IRIS Y

Assembled Data arriving in 2023

ARRIVAL REPORT START END nickname name type restricted notes
2023-01-05 16:00:00-08 22-030 2022 2022 WHOLESCALE WHOLESCALE survey at San Emidio, Nevada, USA PASSCAL Y 4/25/23 per Holly release year 2023
2023-01-23 16:00:00-08 22-016 2020 2022 Bedload_Monitoring 2022 Nodes Bedload Monitoring of Ephemeral Streams 2022 Nodal Portion PASSCAL Y
2023-01-23 16:00:00-08 22-029 2021 2022 P- and S-wave survey of landslide at Berkeley Lab P- and S-wave survey of landslide at Berkeley Lab PASSCAL N
2023-01-29 16:00:00-08 23-001 2019 2019 MM-DAG4 Multi-Modal DAG-4 Dataset Other N
2023-01-31 16:00:00-08 22-028 2020 2020 YStone_Magma Imaging Yellowstone's shallow Magma Reservoir PASSCAL N
2023-02-08 16:00:00-08 22-027 2000 2000 KRISE Kolbeinsey Ridge - Iceland Seismic Experiment Other N SEGY Data expected to arrive 02/09/2023 but arrived and archived 07/17/2023.
2023-02-13 16:00:00-08 23-002 2020 2020 LSECE Large Surface Explosion Coupling Experiment Other N Various Formats
2023-02-16 16:00:00-08 20-018 2017 2017 FREY-2017 FREY - Nevada National Securty Site HADDOCK Other N
2023-02-26 16:00:00-08 22-018 2022 2023 Ice Rift Antarctica Ice Rift Experiment PASSCAL Y
2023-03-05 16:00:00-08 22-011 2022 2023 GHOST NODES 22-23 (aka Thwaites Glacier) Geophysical Habitat of Subglacial Thwaites PASSCAL Y 4/25/23 per Holly: release code year 2024
2023-03-12 17:00:00-07 22-021 2022 2023 TIME_NODES Phase II (aka Thwaites Margins) TIME_NODES Phase II (formerly Thwaites Margins) PASSCAL Y
2023-03-14 17:00:00-07 23-004 2022 2022 Utah-FORGE-2022 Utah FORGE Spring 2022 Nodal Array Other N
2023-03-16 17:00:00-07 23-005 2018 2022 GNSSA_AK_17_23 Aleutian Subduction Zone GNSS-A 2017-2023 Other N
2023-04-19 17:00:00-07 22-023 2022 2022 Valles Caldera 2022 - Node SAGE 2022 investigations of the Valles Caldera - Node PASSCAL Y
2023-04-27 17:00:00-07 23-010 2022 2022 SIIOS Greenland Seismometer to Investigate Ice and Ocean Structure (SIIOS) Field Experiment Other Y
2023-05-03 17:00:00-07 23-011 2022 2022 FLUID FLUID - Role of FLuids in Underground Salt Cavern and Wastewater Injection Site Deformation PASSCAL Y
2023-05-08 17:00:00-07 23-003 2023 2023 EGGS On TOAST Eastwind Glacier Geophysical Surveys ON Top Of Antarctic iceShelf Transition PASSCAL Y 23-003 PH5. 23-013 SEGY.
2023-05-08 17:00:00-07 23-015 2022 2022 MSH_2022 Mount St. Helens 2022 Other N
2023-05-31 17:00:00-07 23-018 2022 2022 Fluvial sediment morphology Fluvial morphology and urban karst development in Cincinnati, Hamilton County, OH PASSCAL N
2023-06-07 17:00:00-07 23-007 1966 1972 LBSN-2023-1 Leo Brady Seismic Network legacy data Other N Update description per PI email 06/08/2023.
2023-06-14 17:00:00-07 23-019 2022 2023 SPRESSO DAS SPRESSO South Pole Distributed Acoustic Sensing PASSCAL Y
2023-07-12 17:00:00-07 23-020 2018 2018 DAG Gradiometry Dry Alluvium Geology Gradiometry Other N .mat MatLab format
2023-07-20 17:00:00-07 23-022 2022 2022 Dry Forks CCS Monitoring Dry Forks Ambient Seismic Noise CCS Monitoring Experiment, Gillette, Wyoming PASSCAL Y Allowed users: chloe.gradson@sisproblem.com Sophie Beaupretre sophie.beaupretre@sisproble.com.
2023-07-23 17:00:00-07 23-014 1979 1992 LNN-LEDR LNN Legacy Explosions Dataset Release Other N
2023-07-23 17:00:00-07 23-023 2023 2023 OREO_NODES Phase I Nodal Seismometer Deployment at Oak Ridge earthflow near San Jose, CA PASSCAL Y
2023-08-07 17:00:00-07 23-025 2022 2022 Pinos watershed late summer scans Pinos watershed late summer scans PASSCAL Y Restriction request from PI via DG at EPIC on 8/8/23.
2023-08-17 17:00:00-07 16-020 2016 2016 HTP Terrapin PASSCAL N release date: 10/28/18
2023-11-08 16:00:00-08 23-030 2022 2022 Borehole source testing at PFO Testing continuous seismic borehole sources at PFO, CA PASSCAL N
2023-11-14 16:00:00-08 23-034 2023 2023 Listening for sediment transport and ice breakup i Exploring the potential of geophones for quantifying bedload tranpsort and river ice break up in the PASSCAL N multi-modal experiment.
2023-11-14 16:00:00-08 23-040 2023 2023 Reno area deep basins Seismic analysis for North Valleys and TRIC PASSCAL N
2023-11-19 16:00:00-08 23-033 2023 2023 Lake City landslide experiment PASSCAL N Per email from EPIC 10/6/23 data type is PH5- assign assembled ID. 01/09/2023 temporarily OPEN.
2023-12-11 16:00:00-08 19-011 2019 2019 FORGE_2C FORGE Phase2C Stimulation Other N SEGY is in the PH5 container. 03/15/2023: SAC and NOT SEGY or PH5.
2023-12-25 16:00:00-08 23-041 2023 2023 Multi-Method Geophysical subsurface characterizati Advancing Forest Health Assessment through Multi-Method Geophysical Surveys: Case Study in Snodgrass PASSCAL N